sensor_id;sensor_type;location;lat;lon;timestamp;temperature;humidity
27779;DHT22;30234;48.090;11.464;2023-05-27T00:00:33;14.50;99.90
27779;DHT22;30234;48.090;11.464;2023-05-27T00:04:34;14.30;99.90
27779;DHT22;30234;48.090;11.464;2023-05-27T00:08:35;14.10;99.90
27779;DHT22;30234;48.090;11.464;2023-05-27T00:12:35;14.00;99.90
27779;DHT22;30234;48.090;11.464;2023-05-27T00:16:36;13.70;99.90
27779;DHT22;30234;48.090;11.464;2023-05-27T00:20:37;13.60;99.90
27779;DHT22;30234;48.090;11.464;2023-05-27T00:24:38;13.40;99.90
27779;DHT22;30234;48.090;11.464;2023-05-27T00:28:41;13.60;99.90
27779;DHT22;30234;48.090;11.464;2023-05-27T00:32:42;13.30;99.90
27779;DHT22;30234;48.090;11.464;2023-05-27T00:36:43;13.20;99.90
27779;DHT22;30234;48.090;11.464;2023-05-27T00:40:44;12.90;99.90
27779;DHT22;30234;48.090;11.464;2023-05-27T00:44:46;12.60;99.90
27779;DHT22;30234;48.090;11.464;2023-05-27T00:48:47;12.50;99.90
27779;DHT22;30234;48.090;11.464;2023-05-27T00:52:48;12.40;99.90
27779;DHT22;30234;48.090;11.464;2023-05-27T00:56:49;12.40;99.90
27779;DHT22;30234;48.090;11.464;2023-05-27T01:00:50;12.30;99.90
27779;DHT22;30234;48.090;11.464;2023-05-27T01:04:51;12.20;99.90
27779;DHT22;30234;48.090;11.464;2023-05-27T01:13:40;11.90;99.90
27779;DHT22;30234;48.090;11.464;2023-05-27T01:17:46;11.80;99.90
27779;DHT22;30234;48.090;11.464;2023-05-27T01:21:48;11.80;99.90
27779;DHT22;30234;48.090;11.464;2023-05-27T01:25:52;11.60;99.90
27779;DHT22;30234;48.090;11.464;2023-05-27T01:29:53;11.40;99.90
27779;DHT22;30234;48.090;11.464;2023-05-27T01:34:00;11.40;99.90
27779;DHT22;30234;48.090;11.464;2023-05-27T01:38:07;11.30;99.90
27779;DHT22;30234;48.090;11.464;2023-05-27T01:42:10;11.30;99.90
27779;DHT22;30234;48.090;11.464;2023-05-27T01:46:11;11.20;99.90
27779;DHT22;30234;48.090;11.464;2023-05-27T01:50:12;11.00;99.90
27779;DHT22;30234;48.090;11.464;2023-05-27T01:54:12;11.00;99.90
27779;DHT22;30234;48.090;11.464;2023-05-27T01:58:13;11.00;99.90
27779;DHT22;30234;48.090;11.464;2023-05-27T02:02:14;10.80;99.90
27779;DHT22;30234;48.090;11.464;2023-05-27T02:06:15;10.70;99.90
27779;DHT22;30234;48.090;11.464;2023-05-27T02:10:16;10.70;99.90
27779;DHT22;30234;48.090;11.464;2023-05-27T02:14:17;10.70;99.90
27779;DHT22;30234;48.090;11.464;2023-05-27T02:18:18;10.60;99.90
27779;DHT22;30234;48.090;11.464;2023-05-27T02:22:22;10.50;99.90
27779;DHT22;30234;48.090;11.464;2023-05-27T02:26:23;10.60;99.90
27779;DHT22;30234;48.090;11.464;2023-05-27T02:30:24;10.60;99.90
27779;DHT22;30234;48.090;11.464;2023-05-27T02:34:24;10.70;99.90
27779;DHT22;30234;48.090;11.464;2023-05-27T02:38:25;10.60;99.90
27779;DHT22;30234;48.090;11.464;2023-05-27T02:42:26;10.70;99.90
27779;DHT22;30234;48.090;11.464;2023-05-27T02:46:27;10.90;99.90
27779;DHT22;30234;48.090;11.464;2023-05-27T02:50:28;10.80;99.90
27779;DHT22;30234;48.090;11.464;2023-05-27T02:54:29;10.70;99.90
27779;DHT22;30234;48.090;11.464;2023-05-27T02:58:30;10.70;99.90
27779;DHT22;30234;48.090;11.464;2023-05-27T03:02:31;10.60;99.90
27779;DHT22;30234;48.090;11.464;2023-05-27T03:06:32;10.50;99.90
27779;DHT22;30234;48.090;11.464;2023-05-27T03:10:33;10.40;99.90
27779;DHT22;30234;48.090;11.464;2023-05-27T03:14:34;10.20;99.90
27779;DHT22;30234;48.090;11.464;2023-05-27T03:18:35;10.10;99.90
27779;DHT22;30234;48.090;11.464;2023-05-27T03:22:36;10.10;99.90
27779;DHT22;30234;48.090;11.464;2023-05-27T03:26:37;10.00;99.90
27779;DHT22;30234;48.090;11.464;2023-05-27T03:30:37;9.90;99.90
27779;DHT22;30234;48.090;11.464;2023-05-27T03:34:38;9.70;99.90
27779;DHT22;30234;48.090;11.464;2023-05-27T03:38:39;9.60;99.90
27779;DHT22;30234;48.090;11.464;2023-05-27T03:42:40;9.50;99.90
27779;DHT22;30234;48.090;11.464;2023-05-27T03:46:41;9.50;99.90
27779;DHT22;30234;48.090;11.464;2023-05-27T03:50:42;9.70;99.90
27779;DHT22;30234;48.090;11.464;2023-05-27T03:54:43;9.70;99.90
27779;DHT22;30234;48.090;11.464;2023-05-27T03:58:44;9.80;99.90
27779;DHT22;30234;48.090;11.464;2023-05-27T04:02:45;9.70;99.90
27779;DHT22;30234;48.090;11.464;2023-05-27T04:06:47;9.70;99.90
27779;DHT22;30234;48.090;11.464;2023-05-27T04:10:48;9.90;99.90
27779;DHT22;30234;48.090;11.464;2023-05-27T04:14:50;11.00;99.90
27779;DHT22;30234;48.090;11.464;2023-05-27T04:18:51;11.60;99.90
27779;DHT22;30234;48.090;11.464;2023-05-27T04:22:52;11.50;99.90
27779;DHT22;30234;48.090;11.464;2023-05-27T04:26:53;12.00;99.90
27779;DHT22;30234;48.090;11.464;2023-05-27T04:30:54;13.60;99.90
27779;DHT22;30234;48.090;11.464;2023-05-27T04:34:55;15.30;99.90
27779;DHT22;30234;48.090;11.464;2023-05-27T04:38:57;17.20;99.90
27779;DHT22;30234;48.090;11.464;2023-05-27T04:43:00;18.20;99.90
27779;DHT22;30234;48.090;11.464;2023-05-27T04:47:01;19.40;99.90
27779;DHT22;30234;48.090;11.464;2023-05-27T04:51:02;20.40;99.90
27779;DHT22;30234;48.090;11.464;2023-05-27T04:55:04;21.40;99.90
27779;DHT22;30234;48.090;11.464;2023-05-27T04:59:05;21.90;99.90
27779;DHT22;30234;48.090;11.464;2023-05-27T05:03:06;21.90;98.90
27779;DHT22;30234;48.090;11.464;2023-05-27T05:07:07;20.80;99.20
27779;DHT22;30234;48.090;11.464;2023-05-27T05:11:08;20.90;99.80
27779;DHT22;30234;48.090;11.464;2023-05-27T05:15:09;21.30;98.40
27779;DHT22;30234;48.090;11.464;2023-05-27T05:19:10;20.80;96.90
27779;DHT22;30234;48.090;11.464;2023-05-27T05:23:11;21.40;96.00
27779;DHT22;30234;48.090;11.464;2023-05-27T05:27:12;21.00;96.10
27779;DHT22;30234;48.090;11.464;2023-05-27T05:31:13;20.80;96.30
27779;DHT22;30234;48.090;11.464;2023-05-27T05:35:13;21.40;94.70
27779;DHT22;30234;48.090;11.464;2023-05-27T05:39:14;22.50;93.10
27779;DHT22;30234;48.090;11.464;2023-05-27T05:43:16;22.70;91.00
27779;DHT22;30234;48.090;11.464;2023-05-27T05:47:17;21.90;90.70
27779;DHT22;30234;48.090;11.464;2023-05-27T05:51:17;22.50;90.40
27779;DHT22;30234;48.090;11.464;2023-05-27T05:55:18;22.40;87.60
27779;DHT22;30234;48.090;11.464;2023-05-27T05:59:19;22.30;86.10
27779;DHT22;30234;48.090;11.464;2023-05-27T06:03:20;21.70;87.70
27779;DHT22;30234;48.090;11.464;2023-05-27T06:07:21;21.40;89.30
27779;DHT22;30234;48.090;11.464;2023-05-27T06:11:22;21.70;87.40
27779;DHT22;30234;48.090;11.464;2023-05-27T06:15:23;22.40;86.50
27779;DHT22;30234;48.090;11.464;2023-05-27T06:19:24;22.20;84.60
27779;DHT22;30234;48.090;11.464;2023-05-27T06:23:25;22.70;84.70
27779;DHT22;30234;48.090;11.464;2023-05-27T06:27:25;23.10;85.30
27779;DHT22;30234;48.090;11.464;2023-05-27T06:31:26;23.00;82.40
27779;DHT22;30234;48.090;11.464;2023-05-27T06:35:27;23.80;79.70
27779;DHT22;30234;48.090;11.464;2023-05-27T06:39:28;22.00;79.90
27779;DHT22;30234;48.090;11.464;2023-05-27T06:43:29;21.70;81.40
27779;DHT22;30234;48.090;11.464;2023-05-27T06:47:30;21.90;82.50
27779;DHT22;30234;48.090;11.464;2023-05-27T06:51:31;23.40;77.60
27779;DHT22;30234;48.090;11.464;2023-05-27T06:55:32;22.70;78.90
27779;DHT22;30234;48.090;11.464;2023-05-27T06:59:33;24.20;76.30
27779;DHT22;30234;48.090;11.464;2023-05-27T07:03:34;24.20;75.30
27779;DHT22;30234;48.090;11.464;2023-05-27T07:07:35;23.60;75.40
27779;DHT22;30234;48.090;11.464;2023-05-27T07:11:36;24.40;73.90
27779;DHT22;30234;48.090;11.464;2023-05-27T07:15:37;24.50;72.70
27779;DHT22;30234;48.090;11.464;2023-05-27T07:19:38;23.90;74.80
27779;DHT22;30234;48.090;11.464;2023-05-27T07:23:39;25.30;74.00
27779;DHT22;30234;48.090;11.464;2023-05-27T07:27:39;26.10;69.00
27779;DHT22;30234;48.090;11.464;2023-05-27T07:31:40;25.30;69.10
27779;DHT22;30234;48.090;11.464;2023-05-27T07:35:42;25.90;67.10
27779;DHT22;30234;48.090;11.464;2023-05-27T07:39:43;25.00;68.90
27779;DHT22;30234;48.090;11.464;2023-05-27T07:43:44;25.60;67.20
27779;DHT22;30234;48.090;11.464;2023-05-27T07:47:44;25.80;68.00
27779;DHT22;30234;48.090;11.464;2023-05-27T07:51:46;26.20;66.30
27779;DHT22;30234;48.090;11.464;2023-05-27T07:55:47;26.00;63.20
27779;DHT22;30234;48.090;11.464;2023-05-27T07:59:48;26.10;66.30
27779;DHT22;30234;48.090;11.464;2023-05-27T08:03:49;27.80;62.00
27779;DHT22;30234;48.090;11.464;2023-05-27T08:07:50;27.90;59.60
27779;DHT22;30234;48.090;11.464;2023-05-27T08:11:51;26.50;62.30
27779;DHT22;30234;48.090;11.464;2023-05-27T08:15:52;27.20;60.40
27779;DHT22;30234;48.090;11.464;2023-05-27T08:19:53;27.90;59.30
27779;DHT22;30234;48.090;11.464;2023-05-27T08:23:53;28.10;57.00
27779;DHT22;30234;48.090;11.464;2023-05-27T08:27:55;27.00;58.40
27779;DHT22;30234;48.090;11.464;2023-05-27T08:32:02;27.80;59.10
27779;DHT22;30234;48.090;11.464;2023-05-27T08:36:03;29.10;56.00
27779;DHT22;30234;48.090;11.464;2023-05-27T08:40:06;28.20;55.70
27779;DHT22;30234;48.090;11.464;2023-05-27T08:44:09;28.10;56.30
27779;DHT22;30234;48.090;11.464;2023-05-27T08:48:10;26.90;58.20
27779;DHT22;30234;48.090;11.464;2023-05-27T08:52:11;25.80;60.00
27779;DHT22;30234;48.090;11.464;2023-05-27T08:56:21;27.10;59.10
27779;DHT22;30234;48.090;11.464;2023-05-27T09:00:23;27.50;57.40
27779;DHT22;30234;48.090;11.464;2023-05-27T09:04:26;27.90;58.00
27779;DHT22;30234;48.090;11.464;2023-05-27T09:08:27;27.40;58.20
27779;DHT22;30234;48.090;11.464;2023-05-27T09:12:28;27.60;58.70
27779;DHT22;30234;48.090;11.464;2023-05-27T09:16:29;27.60;56.90
27779;DHT22;30234;48.090;11.464;2023-05-27T09:20:30;27.00;58.30
27779;DHT22;30234;48.090;11.464;2023-05-27T09:24:32;27.00;58.50
27779;DHT22;30234;48.090;11.464;2023-05-27T09:28:35;26.70;59.50
27779;DHT22;30234;48.090;11.464;2023-05-27T09:32:36;26.80;59.10
27779;DHT22;30234;48.090;11.464;2023-05-27T09:36:57;26.80;58.70
27779;DHT22;30234;48.090;11.464;2023-05-27T09:40:59;27.20;59.50
27779;DHT22;30234;48.090;11.464;2023-05-27T09:45:03;27.80;58.50
27779;DHT22;30234;48.090;11.464;2023-05-27T09:49:07;26.70;60.20
27779;DHT22;30234;48.090;11.464;2023-05-27T09:53:09;26.90;58.60
27779;DHT22;30234;48.090;11.464;2023-05-27T09:57:11;27.10;58.70
27779;DHT22;30234;48.090;11.464;2023-05-27T10:01:12;26.80;59.00
27779;DHT22;30234;48.090;11.464;2023-05-27T10:05:14;27.50;57.80
27779;DHT22;30234;48.090;11.464;2023-05-27T10:09:16;27.70;57.90
27779;DHT22;30234;48.090;11.464;2023-05-27T10:13:19;27.00;57.30
27779;DHT22;30234;48.090;11.464;2023-05-27T10:17:20;26.80;57.90
27779;DHT22;30234;48.090;11.464;2023-05-27T10:21:22;27.60;58.20
27779;DHT22;30234;48.090;11.464;2023-05-27T10:25:36;27.80;57.20
27779;DHT22;30234;48.090;11.464;2023-05-27T10:29:38;28.50;56.50
27779;DHT22;30234;48.090;11.464;2023-05-27T10:33:43;27.90;55.40
27779;DHT22;30234;48.090;11.464;2023-05-27T10:37:46;26.80;56.70
27779;DHT22;30234;48.090;11.464;2023-05-27T10:41:55;27.30;56.90
27779;DHT22;30234;48.090;11.464;2023-05-27T10:46:13;27.30;56.70
27779;DHT22;30234;48.090;11.464;2023-05-27T10:50:14;27.20;56.40
27779;DHT22;30234;48.090;11.464;2023-05-27T10:54:15;27.30;56.10
27779;DHT22;30234;48.090;11.464;2023-05-27T10:58:17;27.20;56.00
27779;DHT22;30234;48.090;11.464;2023-05-27T11:02:19;27.10;55.70
27779;DHT22;30234;48.090;11.464;2023-05-27T11:06:20;27.50;55.40
27779;DHT22;30234;48.090;11.464;2023-05-27T11:10:22;27.70;54.90
27779;DHT22;30234;48.090;11.464;2023-05-27T11:14:23;27.70;54.70
27779;DHT22;30234;48.090;11.464;2023-05-27T11:18:24;26.90;53.90
27779;DHT22;30234;48.090;11.464;2023-05-27T11:22:26;27.20;55.80
27779;DHT22;30234;48.090;11.464;2023-05-27T11:26:26;26.80;56.50
27779;DHT22;30234;48.090;11.464;2023-05-27T11:30:27;27.30;56.70
27779;DHT22;30234;48.090;11.464;2023-05-27T11:34:29;26.40;55.80
27779;DHT22;30234;48.090;11.464;2023-05-27T11:38:30;27.00;54.70
27779;DHT22;30234;48.090;11.464;2023-05-27T11:42:31;27.00;56.20
27779;DHT22;30234;48.090;11.464;2023-05-27T11:46:37;26.70;56.30
27779;DHT22;30234;48.090;11.464;2023-05-27T11:50:39;26.00;55.80
27779;DHT22;30234;48.090;11.464;2023-05-27T11:54:41;26.30;56.70
27779;DHT22;30234;48.090;11.464;2023-05-27T11:58:42;26.10;56.00
27779;DHT22;30234;48.090;11.464;2023-05-27T12:02:43;26.20;55.70
27779;DHT22;30234;48.090;11.464;2023-05-27T12:06:45;26.50;55.70
27779;DHT22;30234;48.090;11.464;2023-05-27T12:10:46;26.70;55.60
27779;DHT22;30234;48.090;11.464;2023-05-27T12:14:50;26.90;54.50
27779;DHT22;30234;48.090;11.464;2023-05-27T12:18:51;26.50;53.90
27779;DHT22;30234;48.090;11.464;2023-05-27T12:22:55;26.00;54.30
27779;DHT22;30234;48.090;11.464;2023-05-27T12:26:56;25.60;56.20
27779;DHT22;30234;48.090;11.464;2023-05-27T12:30:57;26.00;54.60
27779;DHT22;30234;48.090;11.464;2023-05-27T12:34:58;26.30;54.90
27779;DHT22;30234;48.090;11.464;2023-05-27T12:38:59;26.30;54.40
27779;DHT22;30234;48.090;11.464;2023-05-27T12:43:00;26.00;54.10
27779;DHT22;30234;48.090;11.464;2023-05-27T12:47:04;26.80;54.10
27779;DHT22;30234;48.090;11.464;2023-05-27T12:51:05;26.90;51.70
27779;DHT22;30234;48.090;11.464;2023-05-27T12:55:06;26.90;52.80
27779;DHT22;30234;48.090;11.464;2023-05-27T12:59:08;27.20;51.50
27779;DHT22;30234;48.090;11.464;2023-05-27T13:03:09;27.40;51.00
27779;DHT22;30234;48.090;11.464;2023-05-27T13:07:10;27.70;50.30
27779;DHT22;30234;48.090;11.464;2023-05-27T13:11:11;27.40;50.80
27779;DHT22;30234;48.090;11.464;2023-05-27T13:15:13;27.80;50.60
27779;DHT22;30234;48.090;11.464;2023-05-27T13:19:16;27.90;50.40
27779;DHT22;30234;48.090;11.464;2023-05-27T13:23:17;28.10;50.40
27779;DHT22;30234;48.090;11.464;2023-05-27T13:27:19;28.00;48.90
27779;DHT22;30234;48.090;11.464;2023-05-27T13:31:20;28.10;49.80
27779;DHT22;30234;48.090;11.464;2023-05-27T13:35:21;28.10;50.80
27779;DHT22;30234;48.090;11.464;2023-05-27T13:39:22;28.20;49.10
27779;DHT22;30234;48.090;11.464;2023-05-27T13:43:23;28.60;49.30
27779;DHT22;30234;48.090;11.464;2023-05-27T13:47:23;29.10;47.20
27779;DHT22;30234;48.090;11.464;2023-05-27T13:51:24;28.60;47.90
27779;DHT22;30234;48.090;11.464;2023-05-27T13:55:26;28.30;47.20
27779;DHT22;30234;48.090;11.464;2023-05-27T13:59:27;27.00;48.80
27779;DHT22;30234;48.090;11.464;2023-05-27T14:03:27;27.10;49.50
27779;DHT22;30234;48.090;11.464;2023-05-27T14:07:28;27.50;49.20
27779;DHT22;30234;48.090;11.464;2023-05-27T14:11:29;27.30;49.20
27779;DHT22;30234;48.090;11.464;2023-05-27T14:15:30;26.40;49.90
27779;DHT22;30234;48.090;11.464;2023-05-27T14:19:31;26.70;49.80
27779;DHT22;30234;48.090;11.464;2023-05-27T14:23:32;26.40;51.40
27779;DHT22;30234;48.090;11.464;2023-05-27T14:27:33;27.00;50.60
27779;DHT22;30234;48.090;11.464;2023-05-27T14:31:34;26.30;51.30
27779;DHT22;30234;48.090;11.464;2023-05-27T14:35:35;26.70;51.10
27779;DHT22;30234;48.090;11.464;2023-05-27T14:39:36;27.40;48.50
27779;DHT22;30234;48.090;11.464;2023-05-27T14:43:37;26.70;49.70
27779;DHT22;30234;48.090;11.464;2023-05-27T14:47:38;26.60;49.80
27779;DHT22;30234;48.090;11.464;2023-05-27T14:51:39;26.70;49.60
27779;DHT22;30234;48.090;11.464;2023-05-27T14:55:40;27.10;47.90
27779;DHT22;30234;48.090;11.464;2023-05-27T14:59:41;26.10;49.70
27779;DHT22;30234;48.090;11.464;2023-05-27T15:03:42;25.90;50.00
27779;DHT22;30234;48.090;11.464;2023-05-27T15:07:43;26.40;48.80
27779;DHT22;30234;48.090;11.464;2023-05-27T15:11:44;26.80;49.70
27779;DHT22;30234;48.090;11.464;2023-05-27T15:15:45;27.40;46.90
27779;DHT22;30234;48.090;11.464;2023-05-27T15:19:46;27.30;46.50
27779;DHT22;30234;48.090;11.464;2023-05-27T15:23:47;26.90;47.60
27779;DHT22;30234;48.090;11.464;2023-05-27T15:27:48;26.50;48.00
27779;DHT22;30234;48.090;11.464;2023-05-27T15:31:49;26.60;48.10
27779;DHT22;30234;48.090;11.464;2023-05-27T15:35:50;26.60;47.40
27779;DHT22;30234;48.090;11.464;2023-05-27T15:39:50;26.50;47.60
27779;DHT22;30234;48.090;11.464;2023-05-27T15:43:51;26.70;49.00
27779;DHT22;30234;48.090;11.464;2023-05-27T15:47:52;26.60;47.20
27779;DHT22;30234;48.090;11.464;2023-05-27T15:51:54;26.70;47.50
27779;DHT22;30234;48.090;11.464;2023-05-27T15:55:55;27.10;47.20
27779;DHT22;30234;48.090;11.464;2023-05-27T15:59:56;26.20;48.00
27779;DHT22;30234;48.090;11.464;2023-05-27T16:03:57;25.30;48.10
27779;DHT22;30234;48.090;11.464;2023-05-27T16:07:58;25.40;47.40
27779;DHT22;30234;48.090;11.464;2023-05-27T16:11:59;25.10;47.90
27779;DHT22;30234;48.090;11.464;2023-05-27T16:16:00;25.00;48.60
27779;DHT22;30234;48.090;11.464;2023-05-27T16:20:01;25.00;48.40
27779;DHT22;30234;48.090;11.464;2023-05-27T16:24:02;24.80;48.70
27779;DHT22;30234;48.090;11.464;2023-05-27T16:28:03;24.80;47.80
27779;DHT22;30234;48.090;11.464;2023-05-27T16:32:04;24.70;48.50
27779;DHT22;30234;48.090;11.464;2023-05-27T16:36:05;23.90;49.00
27779;DHT22;30234;48.090;11.464;2023-05-27T16:40:07;23.80;49.70
27779;DHT22;30234;48.090;11.464;2023-05-27T16:44:08;23.50;49.90
27779;DHT22;30234;48.090;11.464;2023-05-27T16:48:09;23.80;50.10
27779;DHT22;30234;48.090;11.464;2023-05-27T16:52:10;24.10;48.40
27779;DHT22;30234;48.090;11.464;2023-05-27T16:56:11;24.10;48.10
27779;DHT22;30234;48.090;11.464;2023-05-27T17:00:12;24.20;48.00
27779;DHT22;30234;48.090;11.464;2023-05-27T17:04:13;24.10;48.20
27779;DHT22;30234;48.090;11.464;2023-05-27T17:08:14;23.90;48.80
27779;DHT22;30234;48.090;11.464;2023-05-27T17:12:15;23.80;50.40
27779;DHT22;30234;48.090;11.464;2023-05-27T17:16:16;22.90;50.20
27779;DHT22;30234;48.090;11.464;2023-05-27T17:20:17;22.20;51.90
27779;DHT22;30234;48.090;11.464;2023-05-27T17:24:19;21.70;52.30
27779;DHT22;30234;48.090;11.464;2023-05-27T17:28:20;21.10;52.90
27779;DHT22;30234;48.090;11.464;2023-05-27T17:32:21;20.80;52.80
27779;DHT22;30234;48.090;11.464;2023-05-27T17:36:22;20.70;53.50
27779;DHT22;30234;48.090;11.464;2023-05-27T17:40:23;20.60;54.70
27779;DHT22;30234;48.090;11.464;2023-05-27T17:44:24;21.30;55.60
27779;DHT22;30234;48.090;11.464;2023-05-27T17:48:25;20.40;56.40
27779;DHT22;30234;48.090;11.464;2023-05-27T17:52:27;20.20;56.10
27779;DHT22;30234;48.090;11.464;2023-05-27T17:56:29;20.10;56.10
27779;DHT22;30234;48.090;11.464;2023-05-27T18:00:30;20.00;56.80
27779;DHT22;30234;48.090;11.464;2023-05-27T18:04:31;20.10;57.40
27779;DHT22;30234;48.090;11.464;2023-05-27T18:08:33;19.70;57.60
27779;DHT22;30234;48.090;11.464;2023-05-27T18:12:34;19.70;57.70
27779;DHT22;30234;48.090;11.464;2023-05-27T18:16:35;19.50;57.30
27779;DHT22;30234;48.090;11.464;2023-05-27T18:20:36;19.40;56.50
27779;DHT22;30234;48.090;11.464;2023-05-27T18:24:37;19.30;56.20
27779;DHT22;30234;48.090;11.464;2023-05-27T18:28:38;19.10;56.70
27779;DHT22;30234;48.090;11.464;2023-05-27T18:32:47;18.90;57.10
27779;DHT22;30234;48.090;11.464;2023-05-27T18:36:49;18.90;57.60
27779;DHT22;30234;48.090;11.464;2023-05-27T18:40:49;18.80;58.00
27779;DHT22;30234;48.090;11.464;2023-05-27T18:44:50;18.60;58.70
27779;DHT22;30234;48.090;11.464;2023-05-27T18:48:51;18.30;59.70
27779;DHT22;30234;48.090;11.464;2023-05-27T18:52:52;18.90;60.00
27779;DHT22;30234;48.090;11.464;2023-05-27T18:56:53;18.60;59.60
27779;DHT22;30234;48.090;11.464;2023-05-27T19:00:54;18.00;60.60
27779;DHT22;30234;48.090;11.464;2023-05-27T19:04:55;17.70;61.80
27779;DHT22;30234;48.090;11.464;2023-05-27T19:08:55;17.20;63.20
27779;DHT22;30234;48.090;11.464;2023-05-27T19:12:57;17.00;65.50
27779;DHT22;30234;48.090;11.464;2023-05-27T19:16:58;16.70;65.90
27779;DHT22;30234;48.090;11.464;2023-05-27T19:20:59;17.80;67.50
27779;DHT22;30234;48.090;11.464;2023-05-27T19:25:00;16.50;67.40
27779;DHT22;30234;48.090;11.464;2023-05-27T19:29:01;16.40;68.10
27779;DHT22;30234;48.090;11.464;2023-05-27T19:33:02;16.20;68.60
27779;DHT22;30234;48.090;11.464;2023-05-27T19:37:03;16.00;69.60
27779;DHT22;30234;48.090;11.464;2023-05-27T19:41:04;15.80;71.00
27779;DHT22;30234;48.090;11.464;2023-05-27T19:45:06;15.60;71.80
27779;DHT22;30234;48.090;11.464;2023-05-27T19:49:07;15.30;72.40
27779;DHT22;30234;48.090;11.464;2023-05-27T19:53:08;15.10;74.20
27779;DHT22;30234;48.090;11.464;2023-05-27T19:57:09;14.80;76.50
27779;DHT22;30234;48.090;11.464;2023-05-27T20:01:10;14.60;78.60
27779;DHT22;30234;48.090;11.464;2023-05-27T20:05:11;14.20;80.50
27779;DHT22;30234;48.090;11.464;2023-05-27T20:09:12;13.90;82.80
27779;DHT22;30234;48.090;11.464;2023-05-27T20:13:13;13.70;85.00
27779;DHT22;30234;48.090;11.464;2023-05-27T20:17:13;13.70;86.50
27779;DHT22;30234;48.090;11.464;2023-05-27T20:21:14;13.70;87.50
27779;DHT22;30234;48.090;11.464;2023-05-27T20:25:15;13.50;89.50
27779;DHT22;30234;48.090;11.464;2023-05-27T20:29:16;13.40;91.10
27779;DHT22;30234;48.090;11.464;2023-05-27T20:33:18;13.20;92.70
27779;DHT22;30234;48.090;11.464;2023-05-27T20:37:19;13.00;94.80
27779;DHT22;30234;48.090;11.464;2023-05-27T20:41:19;12.90;97.40
27779;DHT22;30234;48.090;11.464;2023-05-27T20:45:22;12.70;99.90
27779;DHT22;30234;48.090;11.464;2023-05-27T20:49:24;12.70;99.90
27779;DHT22;30234;48.090;11.464;2023-05-27T20:53:25;12.60;99.90
27779;DHT22;30234;48.090;11.464;2023-05-27T20:57:26;12.40;99.90
27779;DHT22;30234;48.090;11.464;2023-05-27T21:01:28;12.20;99.90
27779;DHT22;30234;48.090;11.464;2023-05-27T21:05:31;12.00;99.90
27779;DHT22;30234;48.090;11.464;2023-05-27T21:09:32;11.90;99.90
27779;DHT22;30234;48.090;11.464;2023-05-27T21:13:33;12.30;99.90
27779;DHT22;30234;48.090;11.464;2023-05-27T21:17:34;11.70;99.90
27779;DHT22;30234;48.090;11.464;2023-05-27T21:21:35;11.60;99.90
27779;DHT22;30234;48.090;11.464;2023-05-27T21:25:36;11.60;99.90
27779;DHT22;30234;48.090;11.464;2023-05-27T21:29:37;11.50;99.90
27779;DHT22;30234;48.090;11.464;2023-05-27T21:33:38;11.50;99.90
27779;DHT22;30234;48.090;11.464;2023-05-27T21:37:39;11.50;99.90
27779;DHT22;30234;48.090;11.464;2023-05-27T21:41:39;11.40;99.90
27779;DHT22;30234;48.090;11.464;2023-05-27T21:45:40;11.20;99.90
27779;DHT22;30234;48.090;11.464;2023-05-27T21:49:41;11.10;99.90
27779;DHT22;30234;48.090;11.464;2023-05-27T21:53:45;11.10;99.90
27779;DHT22;30234;48.090;11.464;2023-05-27T21:57:46;11.10;99.90
27779;DHT22;30234;48.090;11.464;2023-05-27T22:01:47;10.90;99.90
27779;DHT22;30234;48.090;11.464;2023-05-27T22:05:48;10.90;99.90
27779;DHT22;30234;48.090;11.464;2023-05-27T22:09:49;10.70;99.90
27779;DHT22;30234;48.090;11.464;2023-05-27T22:13:50;10.30;99.90
27779;DHT22;30234;48.090;11.464;2023-05-27T22:17:53;10.00;99.90
27779;DHT22;30234;48.090;11.464;2023-05-27T22:21:54;9.90;99.90
27779;DHT22;30234;48.090;11.464;2023-05-27T22:25:55;9.80;99.90
27779;DHT22;30234;48.090;11.464;2023-05-27T22:29:55;9.80;99.90
27779;DHT22;30234;48.090;11.464;2023-05-27T22:33:57;9.80;99.90
27779;DHT22;30234;48.090;11.464;2023-05-27T22:37:58;10.00;99.90
27779;DHT22;30234;48.090;11.464;2023-05-27T22:41:59;9.90;99.90
27779;DHT22;30234;48.090;11.464;2023-05-27T22:46:00;9.80;99.90
27779;DHT22;30234;48.090;11.464;2023-05-27T22:50:01;9.70;99.90
27779;DHT22;30234;48.090;11.464;2023-05-27T22:54:02;9.70;99.90
27779;DHT22;30234;48.090;11.464;2023-05-27T22:58:03;9.60;99.90
27779;DHT22;30234;48.090;11.464;2023-05-27T23:02:04;9.50;99.90
27779;DHT22;30234;48.090;11.464;2023-05-27T23:06:05;9.50;99.90
27779;DHT22;30234;48.090;11.464;2023-05-27T23:10:07;9.40;99.90
27779;DHT22;30234;48.090;11.464;2023-05-27T23:14:08;9.40;99.90
27779;DHT22;30234;48.090;11.464;2023-05-27T23:18:10;9.30;99.90
27779;DHT22;30234;48.090;11.464;2023-05-27T23:22:11;9.30;99.90
27779;DHT22;30234;48.090;11.464;2023-05-27T23:26:12;9.20;99.90
27779;DHT22;30234;48.090;11.464;2023-05-27T23:30:13;9.10;99.90
27779;DHT22;30234;48.090;11.464;2023-05-27T23:34:14;9.00;99.90
27779;DHT22;30234;48.090;11.464;2023-05-27T23:38:15;8.80;99.90
27779;DHT22;30234;48.090;11.464;2023-05-27T23:42:16;8.80;99.90
27779;DHT22;30234;48.090;11.464;2023-05-27T23:46:17;8.80;99.90
27779;DHT22;30234;48.090;11.464;2023-05-27T23:50:17;8.60;99.90
27779;DHT22;30234;48.090;11.464;2023-05-27T23:54:18;8.40;99.90
27779;DHT22;30234;48.090;11.464;2023-05-27T23:58:19;8.50;99.90
